Time;durP1;ratioP1;P1;durP2;ratioP2;P2;SDS_P1;SDS_P2;PMS_P1;PMS_P2;Temp;Humidity;BMP_temperature;BMP_pressure;BME280_temperature;BME280_humidity;BME280_pressure;Samples;Min_cycle;Max_cycle;Signal;HPM_P1;HPM_P2
2023/01/26 00:01:19;;;;;;;;;;;1.70;99.90;;;;;;7349115;19;108681;-92
2023/01/26 00:03:46;;;;;;;;;;;1.70;99.90;;;;;;7353917;19;110186;-94
2023/01/26 00:06:14;;;;;;;;;;;1.70;99.90;;;;;;7350430;19;112122;-94
2023/01/26 00:08:43;;;;;;;;;;;1.80;99.90;;;;;;7348812;19;110415;-94
2023/01/26 00:11:11;;;;;;;;;;;1.80;99.90;;;;;;7348598;19;111538;-93
2023/01/26 00:13:38;;;;;;;;;;;1.70;99.90;;;;;;7349846;19;108571;-93
2023/01/26 00:16:09;;;;;;;;;;;1.70;99.90;;;;;;7347904;19;111184;-94
2023/01/26 00:18:37;;;;;;;;;;;1.70;99.90;;;;;;7350365;19;111209;-94
2023/01/26 00:21:04;;;;;;;;;;;1.70;99.90;;;;;;7346216;19;108697;-93
2023/01/26 00:23:32;;;;;;;;;;;1.60;99.90;;;;;;7349039;19;111926;-92
2023/01/26 00:26:00;;;;;;;;;;;1.60;99.90;;;;;;7354944;19;113128;-93
2023/01/26 00:28:27;;;;;;;;;;;1.60;99.90;;;;;;7349920;19;108743;-92
2023/01/26 00:31:01;;;;;;;;;;;1.50;99.90;;;;;;7348450;19;113283;-92
2023/01/26 00:33:28;;;;;;;;;;;1.50;99.90;;;;;;7348437;19;108630;-94
2023/01/26 00:35:55;;;;;;;;;;;1.60;99.90;;;;;;7348676;19;111630;-93
2023/01/26 00:38:23;;;;;;;;;;;1.60;99.90;;;;;;7347038;19;112155;-92
2023/01/26 00:40:49;;;;;;;;;;;1.60;99.90;;;;;;7348257;19;108605;-94
2023/01/26 00:43:17;;;;;;;;;;;1.60;99.90;;;;;;7347095;19;112055;-94
2023/01/26 00:45:43;;;;;;;;;;;1.60;99.90;;;;;;7352649;19;112637;-93
2023/01/26 00:48:10;;;;;;;;;;;1.50;99.90;;;;;;7347705;19;111469;-93
2023/01/26 00:50:37;;;;;;;;;;;1.50;99.90;;;;;;7345486;19;111876;-93
2023/01/26 00:53:05;;;;;;;;;;;1.50;99.90;;;;;;7346871;19;109652;-93
2023/01/26 00:55:32;;;;;;;;;;;1.60;99.90;;;;;;7344931;19;110798;-92
2023/01/26 00:58:03;;;;;;;;;;;1.60;99.90;;;;;;7346993;19;113385;-93
2023/01/26 01:00:31;;;;;;;;;;;1.60;99.90;;;;;;7347375;19;108570;-94
2023/01/26 01:02:58;;;;;;;;;;;1.60;99.90;;;;;;7348326;19;112162;-94
2023/01/26 01:05:26;;;;;;;;;;;1.60;99.90;;;;;;7345514;19;112214;-94
2023/01/26 01:07:53;;;;;;;;;;;1.60;99.90;;;;;;7351670;19;108918;-93
2023/01/26 01:10:21;;;;;;;;;;;1.60;99.90;;;;;;7349251;19;108829;-93
2023/01/26 01:12:47;;;;;;;;;;;1.50;99.90;;;;;;7343722;19;108534;-94
2023/01/26 01:15:15;;;;;;;;;;;1.50;99.90;;;;;;7347921;19;109616;-93
2023/01/26 01:17:42;;;;;;;;;;;1.60;99.90;;;;;;7346852;19;110593;-93
2023/01/26 01:20:09;;;;;;;;;;;1.60;99.90;;;;;;7346370;19;110463;-92
2023/01/26 01:22:37;;;;;;;;;;;1.60;99.90;;;;;;7344559;19;108861;-94
2023/01/26 01:25:04;;;;;;;;;;;1.60;99.90;;;;;;7346913;19;109887;-93
2023/01/26 01:27:31;;;;;;;;;;;1.70;99.90;;;;;;7347985;19;108636;-93
2023/01/26 01:29:58;;;;;;;;;;;1.80;99.90;;;;;;7351768;19;109034;-94
2023/01/26 01:32:28;;;;;;;;;;;1.80;99.90;;;;;;7344033;19;108580;-93
2023/01/26 01:34:56;;;;;;;;;;;1.70;99.90;;;;;;7348565;19;112048;-93
2023/01/26 01:37:23;;;;;;;;;;;1.80;99.90;;;;;;7345996;19;110171;-93
2023/01/26 01:39:50;;;;;;;;;;;1.80;99.90;;;;;;7348448;19;108510;-93
2023/01/26 01:42:17;;;;;;;;;;;1.80;99.90;;;;;;7346285;19;108544;-93
2023/01/26 01:44:47;;;;;;;;;;;1.80;99.90;;;;;;7344971;19;111539;-93
2023/01/26 01:47:20;;;;;;;;;;;1.70;99.90;;;;;;7345701;19;108771;-93
2023/01/26 01:49:49;;;;;;;;;;;1.80;99.90;;;;;;7347645;19;109472;-93
2023/01/26 01:52:18;;;;;;;;;;;1.70;99.90;;;;;;7350933;19;111501;-92
2023/01/26 01:54:53;;;;;;;;;;;1.70;99.90;;;;;;7346420;19;112193;-93
2023/01/26 01:57:27;;;;;;;;;;;1.70;99.90;;;;;;7347272;19;109254;-92
2023/01/26 01:59:57;;;;;;;;;;;1.70;99.90;;;;;;7344338;19;108462;-92
2023/01/26 02:02:24;;;;;;;;;;;1.70;99.90;;;;;;7343443;19;111593;-92
2023/01/26 02:04:52;;;;;;;;;;;1.70;99.90;;;;;;7343844;19;112068;-92
2023/01/26 02:07:20;;;;;;;;;;;1.70;99.90;;;;;;7341285;19;109106;-92
2023/01/26 02:12:36;;;;;;;;;;;1.90;99.90;;;;;;7342066;19;129947;-93
2023/01/26 02:15:03;;;;;;;;;;;1.90;99.90;;;;;;7345147;19;108603;-93
2023/01/26 02:17:30;;;;;;;;;;;2.00;99.90;;;;;;7340775;19;112904;-92
2023/01/26 02:20:04;;;;;;;;;;;2.00;99.90;;;;;;7339715;19;109837;-93
2023/01/26 02:22:41;;;;;;;;;;;2.00;99.90;;;;;;7338588;19;110776;-92
2023/01/26 02:25:24;;;;;;;;;;;2.00;99.90;;;;;;7341030;19;113085;-92
2023/01/26 02:27:51;;;;;;;;;;;1.90;99.90;;;;;;7340579;19;108632;-92
2023/01/26 02:30:19;;;;;;;;;;;1.90;99.90;;;;;;7338940;19;108454;-93
2023/01/26 02:32:46;;;;;;;;;;;1.90;99.90;;;;;;7338940;19;112245;-92
2023/01/26 02:35:13;;;;;;;;;;;2.00;99.90;;;;;;7344936;19;109292;-92
2023/01/26 02:37:39;;;;;;;;;;;2.10;99.90;;;;;;7350553;19;111938;-92
2023/01/26 02:40:12;;;;;;;;;;;2.10;99.90;;;;;;7347988;19;108328;-92
2023/01/26 02:42:40;;;;;;;;;;;2.10;99.90;;;;;;7346453;19;108517;-92
2023/01/26 02:45:09;;;;;;;;;;;2.20;99.90;;;;;;7343608;19;113256;-92
2023/01/26 02:47:36;;;;;;;;;;;2.20;99.90;;;;;;7348294;19;108390;-92
2023/01/26 02:50:04;;;;;;;;;;;2.20;99.90;;;;;;7347678;19;109140;-93
2023/01/26 02:52:31;;;;;;;;;;;2.20;99.90;;;;;;7345736;19;109324;-93
2023/01/26 02:57:43;;;;;;;;;;;2.30;99.90;;;;;;7346418;19;110028;-93
2023/01/26 03:00:15;;;;;;;;;;;2.30;99.90;;;;;;7341172;19;108835;-92
2023/01/26 03:02:42;;;;;;;;;;;2.30;99.90;;;;;;7342821;19;108845;-92
2023/01/26 03:05:10;;;;;;;;;;;2.30;99.90;;;;;;7345303;19;110221;-92
2023/01/26 03:07:37;;;;;;;;;;;2.30;99.90;;;;;;7346121;19;108413;-93
2023/01/26 03:10:04;;;;;;;;;;;2.30;99.90;;;;;;7344049;19;111219;-92
2023/01/26 03:12:31;;;;;;;;;;;2.30;99.90;;;;;;7344519;19;110824;-92
2023/01/26 03:17:44;;;;;;;;;;;2.40;99.90;;;;;;7345495;19;112362;-93
2023/01/26 03:28:28;;;;;;;;;;;2.40;99.90;;;;;;7346610;19;108250;-93
2023/01/26 03:30:56;;;;;;;;;;;2.40;99.90;;;;;;7348158;19;111307;-93
2023/01/26 03:33:23;;;;;;;;;;;2.40;99.90;;;;;;7347151;19;108839;-92
2023/01/26 03:35:52;;;;;;;;;;;2.40;99.90;;;;;;7348008;19;109689;-93
2023/01/26 03:38:19;;;;;;;;;;;2.40;99.90;;;;;;7344404;19;112013;-92
2023/01/26 03:57:19;;;;;;;;;;;2.50;99.90;;;;;;7344958;19;108279;-93
2023/01/26 03:59:46;;;;;;;;;;;2.50;99.90;;;;;;7343659;19;110424;-93
2023/01/26 04:10:30;;;;;;;;;;;2.50;99.90;;;;;;7344125;19;108508;-93
2023/01/26 04:21:27;;;;;;;;;;;2.50;99.90;;;;;;7345540;19;108557;-92
2023/01/26 04:23:56;;;;;;;;;;;2.50;99.90;;;;;;7343933;19;108378;-92
2023/01/26 04:26:24;;;;;;;;;;;2.50;99.90;;;;;;7343497;19;108715;-94
2023/01/26 04:28:51;;;;;;;;;;;2.60;99.90;;;;;;7342976;19;111612;-93
2023/01/26 04:31:18;;;;;;;;;;;2.60;99.90;;;;;;7348037;19;113081;-92
2023/01/26 04:33:45;;;;;;;;;;;2.60;99.90;;;;;;7343458;19;111244;-93
2023/01/26 04:36:12;;;;;;;;;;;2.60;99.90;;;;;;7342140;19;112855;-93
2023/01/26 04:38:38;;;;;;;;;;;2.60;99.90;;;;;;7343413;19;110678;-93
2023/01/26 04:41:05;;;;;;;;;;;2.60;99.90;;;;;;7344370;19;111297;-93
2023/01/26 04:43:33;;;;;;;;;;;2.60;99.90;;;;;;7342834;19;108940;-93
2023/01/26 04:46:00;;;;;;;;;;;2.60;99.90;;;;;;7343366;19;108595;-92
2023/01/26 04:48:28;;;;;;;;;;;2.60;99.90;;;;;;7343838;19;110515;-93
2023/01/26 04:50:56;;;;;;;;;;;2.70;99.90;;;;;;7342076;19;109616;-93
2023/01/26 04:53:23;;;;;;;;;;;2.70;99.90;;;;;;7347522;19;108614;-94
2023/01/26 04:55:50;;;;;;;;;;;2.70;99.90;;;;;;7342141;19;112419;-93
2023/01/26 04:58:18;;;;;;;;;;;2.70;99.90;;;;;;7343303;19;108528;-93
2023/01/26 05:00:49;;;;;;;;;;;2.70;99.90;;;;;;7342741;19;109636;-93
2023/01/26 05:03:16;;;;;;;;;;;2.70;99.90;;;;;;7341889;19;112551;-93
2023/01/26 05:05:43;;;;;;;;;;;2.70;99.90;;;;;;7348576;19;108686;-92
2023/01/26 05:08:10;;;;;;;;;;;2.70;99.90;;;;;;7345068;19;108562;-93
2023/01/26 05:10:37;;;;;;;;;;;2.70;99.90;;;;;;7348579;19;112795;-93
2023/01/26 05:13:04;;;;;;;;;;;2.70;99.90;;;;;;7353283;19;108562;-92
2023/01/26 05:15:31;;;;;;;;;;;2.60;99.90;;;;;;7348943;19;112504;-93
2023/01/26 05:17:58;;;;;;;;;;;2.60;99.90;;;;;;7347902;19;110735;-92
2023/01/26 05:20:25;;;;;;;;;;;2.60;99.90;;;;;;7347357;19;111447;-92
2023/01/26 05:22:52;;;;;;;;;;;2.60;99.90;;;;;;7349117;19;110031;-93
2023/01/26 05:25:20;;;;;;;;;;;2.60;99.90;;;;;;7350927;19;108130;-92
2023/01/26 05:27:47;;;;;;;;;;;2.60;99.90;;;;;;7349381;19;111730;-94
2023/01/26 05:30:14;;;;;;;;;;;2.60;99.90;;;;;;7350557;19;111858;-91
2023/01/26 05:32:41;;;;;;;;;;;2.60;99.90;;;;;;7347780;19;109161;-94
2023/01/26 05:35:08;;;;;;;;;;;2.60;99.90;;;;;;7355130;19;111225;-94
2023/01/26 05:37:35;;;;;;;;;;;2.60;99.90;;;;;;7349222;19;108291;-92
2023/01/26 05:40:03;;;;;;;;;;;2.70;99.90;;;;;;7348255;19;108471;-92
2023/01/26 05:42:30;;;;;;;;;;;2.70;99.90;;;;;;7349013;19;111633;-93
2023/01/26 05:44:57;;;;;;;;;;;2.70;99.90;;;;;;7346549;19;108339;-94
2023/01/26 05:47:24;;;;;;;;;;;2.70;99.90;;;;;;7345253;19;109742;-93
2023/01/26 05:49:51;;;;;;;;;;;2.70;99.90;;;;;;7346344;19;112536;-93
2023/01/26 05:52:18;;;;;;;;;;;2.80;99.90;;;;;;7345920;19;109792;-93
2023/01/26 05:54:45;;;;;;;;;;;2.80;99.90;;;;;;7345897;19;109087;-93
2023/01/26 05:57:15;;;;;;;;;;;2.80;99.90;;;;;;7353178;19;111413;-93
2023/01/26 05:59:42;;;;;;;;;;;2.80;99.90;;;;;;7346798;19;110945;-93
2023/01/26 06:02:10;;;;;;;;;;;2.80;99.90;;;;;;7347951;19;112860;-94
2023/01/26 06:04:37;;;;;;;;;;;2.80;99.90;;;;;;7350152;19;108408;-94
2023/01/26 06:07:04;;;;;;;;;;;2.80;99.90;;;;;;7348580;19;110462;-93
2023/01/26 06:09:31;;;;;;;;;;;2.80;99.90;;;;;;7347604;19;110281;-95
2023/01/26 06:11:58;;;;;;;;;;;2.80;99.90;;;;;;7346794;19;108360;-94
2023/01/26 06:14:25;;;;;;;;;;;2.80;99.90;;;;;;7347599;19;111113;-93
2023/01/26 06:16:53;;;;;;;;;;;2.80;99.90;;;;;;7351576;19;113117;-96
2023/01/26 06:19:26;;;;;;;;;;;2.80;99.90;;;;;;7357103;19;108162;-96
2023/01/26 06:21:53;;;;;;;;;;;2.80;99.90;;;;;;7358135;19;110323;-96
2023/01/26 06:24:22;;;;;;;;;;;2.80;99.90;;;;;;7350669;19;107780;-96
2023/01/26 06:26:50;;;;;;;;;;;2.80;99.90;;;;;;7356957;19;109071;-96
2023/01/26 06:29:17;;;;;;;;;;;2.80;99.90;;;;;;7348072;19;110623;-95
2023/01/26 06:31:44;;;;;;;;;;;2.80;99.90;;;;;;7344594;19;108716;-94
2023/01/26 06:34:11;;;;;;;;;;;2.80;99.90;;;;;;7346011;19;110428;-95
2023/01/26 06:36:40;;;;;;;;;;;2.80;99.90;;;;;;7345102;19;112090;-94
2023/01/26 06:39:09;;;;;;;;;;;2.80;99.90;;;;;;7350668;19;108829;-96
2023/01/26 06:41:36;;;;;;;;;;;2.80;99.90;;;;;;7351216;19;108519;-93
2023/01/26 06:44:03;;;;;;;;;;;2.80;99.90;;;;;;7342311;19;109193;-93
2023/01/26 06:46:30;;;;;;;;;;;2.80;99.90;;;;;;7341865;19;109534;-92
2023/01/26 06:48:57;;;;;;;;;;;2.90;99.90;;;;;;7343432;19;113442;-93
2023/01/26 06:51:43;;;;;;;;;;;2.90;99.90;;;;;;7343166;19;108333;-93
2023/01/26 06:54:11;;;;;;;;;;;2.90;99.90;;;;;;7343522;19;109255;-94
2023/01/26 06:56:38;;;;;;;;;;;2.80;99.90;;;;;;7342335;19;111729;-94
2023/01/26 06:59:05;;;;;;;;;;;2.80;99.90;;;;;;7344830;19;108410;-94
2023/01/26 07:01:33;;;;;;;;;;;2.90;99.90;;;;;;7350141;19;110440;-92
2023/01/26 07:04:01;;;;;;;;;;;2.90;99.90;;;;;;7344436;19;109018;-93
2023/01/26 07:06:27;;;;;;;;;;;2.90;99.90;;;;;;7342918;19;111963;-93
2023/01/26 07:08:58;;;;;;;;;;;2.90;99.90;;;;;;7345714;19;111584;-93
2023/01/26 07:11:25;;;;;;;;;;;2.90;99.90;;;;;;7342796;19;108384;-93
2023/01/26 07:13:52;;;;;;;;;;;2.90;99.90;;;;;;7345389;19;112130;-92
2023/01/26 07:16:19;;;;;;;;;;;2.90;99.90;;;;;;7341846;19;110482;-91
2023/01/26 07:18:46;;;;;;;;;;;3.00;99.90;;;;;;7342351;19;109917;-90
2023/01/26 07:21:14;;;;;;;;;;;2.90;99.90;;;;;;7338846;19;108778;-90
2023/01/26 07:23:41;;;;;;;;;;;2.90;99.90;;;;;;7344708;19;109907;-92
2023/01/26 07:26:08;;;;;;;;;;;2.90;99.90;;;;;;7343313;19;111612;-91
2023/01/26 07:28:35;;;;;;;;;;;2.90;99.90;;;;;;7342891;19;110643;-92
2023/01/26 07:31:06;;;;;;;;;;;2.90;99.90;;;;;;7347723;19;108838;-92
2023/01/26 07:33:33;;;;;;;;;;;2.90;99.90;;;;;;7348902;19;109292;-93
2023/01/26 07:36:01;;;;;;;;;;;3.00;99.90;;;;;;7348524;19;111915;-93
2023/01/26 07:38:28;;;;;;;;;;;3.00;99.90;;;;;;7347980;19;108461;-92
2023/01/26 07:40:55;;;;;;;;;;;3.00;99.90;;;;;;7350274;19;110551;-93
2023/01/26 07:43:23;;;;;;;;;;;3.00;99.90;;;;;;7349193;19;111968;-93
2023/01/26 07:45:51;;;;;;;;;;;3.00;99.90;;;;;;7355877;19;109114;-92
2023/01/26 07:48:19;;;;;;;;;;;3.00;99.90;;;;;;7351305;19;110005;-92
2023/01/26 07:50:47;;;;;;;;;;;2.90;99.90;;;;;;7347007;19;108593;-93
2023/01/26 07:53:18;;;;;;;;;;;3.00;99.90;;;;;;7350395;19;111841;-93
2023/01/26 07:55:45;;;;;;;;;;;3.00;99.90;;;;;;7348244;19;112855;-93
2023/01/26 07:58:12;;;;;;;;;;;3.00;99.90;;;;;;7351980;19;108382;-92
2023/01/26 08:00:39;;;;;;;;;;;3.00;99.90;;;;;;7349937;19;112017;-93
2023/01/26 08:03:06;;;;;;;;;;;3.00;99.90;;;;;;7347379;19;110332;-92
2023/01/26 08:05:35;;;;;;;;;;;3.00;99.90;;;;;;7348545;19;108766;-92
2023/01/26 08:08:03;;;;;;;;;;;3.00;99.90;;;;;;7354117;19;111832;-93
2023/01/26 08:10:30;;;;;;;;;;;3.10;99.90;;;;;;7348628;19;108422;-93
2023/01/26 08:12:59;;;;;;;;;;;3.10;99.90;;;;;;7349226;19;108631;-93
2023/01/26 08:15:26;;;;;;;;;;;3.10;99.90;;;;;;7350169;19;111943;-92
2023/01/26 08:17:53;;;;;;;;;;;3.10;99.90;;;;;;7348269;19;108694;-92
2023/01/26 08:20:21;;;;;;;;;;;3.10;99.90;;;;;;7349980;19;108560;-93
2023/01/26 08:22:47;;;;;;;;;;;3.10;99.90;;;;;;7348086;19;112863;-91
2023/01/26 08:25:14;;;;;;;;;;;3.10;99.90;;;;;;7351017;19;109692;-91
2023/01/26 08:27:41;;;;;;;;;;;3.10;99.90;;;;;;7347562;19;108575;-92
2023/01/26 08:30:09;;;;;;;;;;;3.10;99.90;;;;;;7352952;19;112638;-92
2023/01/26 08:32:37;;;;;;;;;;;3.10;99.90;;;;;;7347170;19;110451;-92
2023/01/26 08:35:04;;;;;;;;;;;3.10;99.90;;;;;;7348416;19;113512;-92
2023/01/26 08:37:31;;;;;;;;;;;3.10;99.90;;;;;;7346445;19;110968;-92
2023/01/26 08:39:59;;;;;;;;;;;3.10;99.90;;;;;;7350729;19;109186;-92
2023/01/26 08:42:26;;;;;;;;;;;3.10;99.90;;;;;;7345002;19;112009;-91
2023/01/26 08:44:53;;;;;;;;;;;3.10;99.90;;;;;;7348060;19;108668;-92
2023/01/26 08:47:20;;;;;;;;;;;3.10;99.90;;;;;;7346876;19;109587;-92
2023/01/26 08:49:47;;;;;;;;;;;3.20;99.90;;;;;;7348746;19;112215;-92
2023/01/26 08:52:15;;;;;;;;;;;3.20;99.90;;;;;;7352979;19;108392;-92
2023/01/26 08:54:42;;;;;;;;;;;3.20;99.90;;;;;;7348319;19;109919;-92
2023/01/26 08:57:11;;;;;;;;;;;3.20;99.90;;;;;;7348425;19;108774;-91
2023/01/26 08:59:37;;;;;;;;;;;3.20;99.90;;;;;;7346566;19;109306;-92
2023/01/26 09:02:04;;;;;;;;;;;3.20;99.90;;;;;;7347858;19;109283;-91
2023/01/26 09:04:32;;;;;;;;;;;3.30;99.90;;;;;;7346815;19;108332;-91
2023/01/26 09:06:59;;;;;;;;;;;3.30;99.90;;;;;;7347030;19;112213;-91
2023/01/26 09:09:26;;;;;;;;;;;3.30;99.90;;;;;;7348295;19;112995;-90
2023/01/26 09:11:56;;;;;;;;;;;3.30;99.90;;;;;;7355221;19;108325;-91
2023/01/26 09:14:23;;;;;;;;;;;3.40;99.90;;;;;;7347366;19;112639;-91
2023/01/26 09:16:50;;;;;;;;;;;3.40;99.90;;;;;;7347086;19;108731;-91
2023/01/26 09:19:17;;;;;;;;;;;3.40;99.90;;;;;;7348609;19;111588;-92
2023/01/26 09:21:44;;;;;;;;;;;3.40;99.90;;;;;;7346456;19;110467;-91
2023/01/26 09:24:11;;;;;;;;;;;3.50;99.90;;;;;;7346757;19;108426;-91
2023/01/26 09:26:38;;;;;;;;;;;3.50;99.90;;;;;;7347762;19;108695;-91
2023/01/26 09:29:05;;;;;;;;;;;3.50;99.90;;;;;;7340241;19;110853;-92
2023/01/26 09:31:31;;;;;;;;;;;3.50;99.90;;;;;;7342720;19;108597;-92
2023/01/26 09:33:59;;;;;;;;;;;3.50;99.90;;;;;;7344708;19;112060;-92
2023/01/26 09:36:26;;;;;;;;;;;3.60;99.90;;;;;;7337038;19;109984;-92
2023/01/26 09:38:53;;;;;;;;;;;3.60;99.90;;;;;;7344409;19;111577;-92
2023/01/26 09:41:20;;;;;;;;;;;3.60;99.90;;;;;;7338935;19;110711;-92
2023/01/26 09:43:51;;;;;;;;;;;3.60;99.90;;;;;;7344756;19;108694;-91
2023/01/26 09:46:24;;;;;;;;;;;3.60;99.90;;;;;;7347328;19;111739;-92
2023/01/26 09:49:11;;;;;;;;;;;3.60;99.90;;;;;;7349558;19;108994;-93
2023/01/26 09:51:40;;;;;;;;;;;3.60;99.90;;;;;;7346339;19;108105;-92
2023/01/26 09:54:19;;;;;;;;;;;3.60;99.90;;;;;;7347290;19;108759;-91
2023/01/26 09:56:45;;;;;;;;;;;3.60;99.90;;;;;;7349483;19;111637;-92
2023/01/26 09:59:23;;;;;;;;;;;3.60;99.90;;;;;;7355945;19;111241;-91
2023/01/26 10:01:58;;;;;;;;;;;3.60;99.90;;;;;;7372824;19;110960;-91
2023/01/26 10:04:35;;;;;;;;;;;3.70;99.90;;;;;;7370136;19;108020;-91
2023/01/26 10:07:08;;;;;;;;;;;3.70;99.90;;;;;;7374521;19;108292;-93
2023/01/26 10:09:36;;;;;;;;;;;3.70;99.90;;;;;;7373625;19;108785;-92
2023/01/26 10:12:05;;;;;;;;;;;3.80;99.90;;;;;;7375923;19;108254;-91
2023/01/26 10:14:32;;;;;;;;;;;3.80;99.90;;;;;;7365273;19;110788;-92
2023/01/26 10:17:00;;;;;;;;;;;3.80;99.90;;;;;;7343323;19;111725;-92
2023/01/26 10:19:30;;;;;;;;;;;3.80;99.90;;;;;;7346420;19;108816;-92
2023/01/26 10:21:59;;;;;;;;;;;3.90;99.90;;;;;;7342738;19;111960;-92
2023/01/26 10:24:26;;;;;;;;;;;3.90;99.90;;;;;;7342306;19;109320;-93
2023/01/26 10:26:56;;;;;;;;;;;3.80;99.90;;;;;;7345645;19;112077;-91
2023/01/26 10:29:23;;;;;;;;;;;3.80;99.90;;;;;;7342960;19;111506;-92
2023/01/26 10:31:50;;;;;;;;;;;3.90;99.90;;;;;;7343887;19;111124;-91
2023/01/26 10:34:25;;;;;;;;;;;3.90;99.90;;;;;;7346613;19;111746;-92
2023/01/26 10:36:55;;;;;;;;;;;4.00;99.90;;;;;;7343128;19;110112;-90
2023/01/26 10:39:22;;;;;;;;;;;4.00;99.90;;;;;;7344337;19;108468;-91
2023/01/26 10:41:57;;;;;;;;;;;4.10;99.90;;;;;;7350523;19;110740;-92
2023/01/26 10:44:31;;;;;;;;;;;4.10;99.90;;;;;;7347184;19;108531;-93
2023/01/26 10:47:03;;;;;;;;;;;4.20;99.90;;;;;;7346104;19;112091;-90
2023/01/26 10:49:30;;;;;;;;;;;4.20;99.90;;;;;;7343536;19;111705;-91
2023/01/26 10:52:13;;;;;;;;;;;4.20;99.90;;;;;;7343775;19;108821;-92
2023/01/26 10:54:42;;;;;;;;;;;4.20;99.90;;;;;;7345889;19;110486;-92
2023/01/26 10:57:14;;;;;;;;;;;4.10;99.90;;;;;;7344152;19;110388;-91
2023/01/26 10:59:46;;;;;;;;;;;4.10;99.90;;;;;;7343514;19;108588;-92
2023/01/26 11:02:13;;;;;;;;;;;4.20;99.90;;;;;;7344526;19;111513;-90
2023/01/26 11:04:40;;;;;;;;;;;4.20;99.90;;;;;;7348109;19;110342;-93
2023/01/26 11:07:24;;;;;;;;;;;4.30;99.90;;;;;;7348157;19;109156;-92
2023/01/26 11:09:51;;;;;;;;;;;4.30;99.90;;;;;;7351121;19;112672;-93
2023/01/26 11:12:20;;;;;;;;;;;4.40;99.90;;;;;;7352225;19;109329;-93
2023/01/26 11:15:03;;;;;;;;;;;4.40;99.90;;;;;;7352798;19;108622;-93
2023/01/26 11:17:45;;;;;;;;;;;4.40;99.90;;;;;;7349601;19;109523;-92
2023/01/26 11:20:15;;;;;;;;;;;4.50;99.90;;;;;;7351234;19;108573;-92
2023/01/26 11:23:00;;;;;;;;;;;4.50;99.90;;;;;;7350431;19;111815;-91
2023/01/26 11:25:33;;;;;;;;;;;4.50;99.90;;;;;;7355070;19;112829;-92
2023/01/26 11:28:06;;;;;;;;;;;4.50;99.90;;;;;;7350833;19;110823;-92
2023/01/26 11:30:52;;;;;;;;;;;4.50;99.90;;;;;;7348119;19;110258;-93
2023/01/26 11:33:42;;;;;;;;;;;4.50;99.90;;;;;;7350301;19;108512;-92
2023/01/26 11:36:28;;;;;;;;;;;4.60;99.90;;;;;;7351476;19;108613;-92
2023/01/26 11:39:04;;;;;;;;;;;4.70;99.90;;;;;;7349976;19;111405;-92
2023/01/26 11:41:50;;;;;;;;;;;4.80;99.90;;;;;;7350059;19;109277;-92
2023/01/26 11:44:17;;;;;;;;;;;4.90;99.90;;;;;;7349854;19;109682;-92
2023/01/26 11:47:02;;;;;;;;;;;4.90;99.90;;;;;;7348609;19;112690;-92
2023/01/26 11:49:49;;;;;;;;;;;5.00;99.90;;;;;;7355585;19;108772;-92
2023/01/26 11:52:16;;;;;;;;;;;5.00;99.90;;;;;;7348224;19;113071;-92
2023/01/26 11:54:58;;;;;;;;;;;5.10;99.90;;;;;;7349453;19;108524;-91
2023/01/26 11:57:49;;;;;;;;;;;5.10;99.90;;;;;;7349779;19;110524;-91
2023/01/26 12:00:20;;;;;;;;;;;5.30;99.90;;;;;;7349030;19;112168;-92
2023/01/26 12:03:03;;;;;;;;;;;5.30;99.90;;;;;;7349281;19;108463;-93
2023/01/26 12:05:40;;;;;;;;;;;5.40;99.90;;;;;;7348818;19;109240;-93
2023/01/26 12:08:21;;;;;;;;;;;5.50;99.90;;;;;;7346742;19;111588;-93
2023/01/26 12:11:20;;;;;;;;;;;5.60;99.90;;;;;;7350783;19;109116;-93
2023/01/26 12:13:46;;;;;;;;;;;5.70;99.90;;;;;;7356089;19;109494;-93
2023/01/26 12:16:19;;;;;;;;;;;5.80;99.90;;;;;;7349699;19;110042;-92
2023/01/26 12:19:10;;;;;;;;;;;5.90;99.90;;;;;;7350173;19;110585;-92
2023/01/26 12:21:41;;;;;;;;;;;6.00;99.90;;;;;;7345193;19;112061;-92
2023/01/26 12:24:11;;;;;;;;;;;6.10;99.90;;;;;;7347371;19;108346;-93
2023/01/26 12:27:01;;;;;;;;;;;6.20;99.90;;;;;;7346315;19;111321;-92
2023/01/26 12:29:33;;;;;;;;;;;6.30;99.90;;;;;;7346043;19;112592;-92
2023/01/26 12:32:03;;;;;;;;;;;6.40;99.90;;;;;;7348484;19;109619;-93
2023/01/26 12:34:32;;;;;;;;;;;6.50;99.90;;;;;;7343863;19;111978;-92
2023/01/26 12:37:02;;;;;;;;;;;6.60;99.90;;;;;;7352353;19;111423;-93
2023/01/26 12:39:34;;;;;;;;;;;6.60;99.90;;;;;;7346783;19;109471;-93
2023/01/26 12:42:10;;;;;;;;;;;6.70;99.90;;;;;;7346861;19;110126;-91
2023/01/26 12:44:39;;;;;;;;;;;6.80;99.90;;;;;;7345316;19;108845;-92
2023/01/26 12:47:24;;;;;;;;;;;6.90;99.90;;;;;;7347761;19;110447;-92
2023/01/26 12:50:10;;;;;;;;;;;7.00;99.90;;;;;;7346453;19;111372;-93
2023/01/26 12:52:43;;;;;;;;;;;7.10;99.90;;;;;;7344543;19;108584;-93
2023/01/26 12:55:13;;;;;;;;;;;7.10;99.90;;;;;;7345314;19;112168;-93
2023/01/26 12:58:12;;;;;;;;;;;7.20;99.90;;;;;;7344517;19;113045;-92
2023/01/26 13:00:39;;;;;;;;;;;7.30;99.90;;;;;;7351630;19;108270;-94
2023/01/26 13:03:12;;;;;;;;;;;7.40;99.90;;;;;;7347443;19;112734;-93
2023/01/26 13:05:53;;;;;;;;;;;7.50;99.90;;;;;;7347435;19;108303;-92
2023/01/26 13:08:30;;;;;;;;;;;7.60;99.90;;;;;;7347750;19;108727;-92
2023/01/26 13:10:58;;;;;;;;;;;7.70;99.90;;;;;;7350100;19;111547;-94
2023/01/26 13:13:37;;;;;;;;;;;7.70;99.90;;;;;;7348963;19;108454;-92
2023/01/26 13:16:13;;;;;;;;;;;7.90;99.90;;;;;;7347491;19;108552;-92
2023/01/26 13:18:51;;;;;;;;;;;7.90;99.90;;;;;;7345716;19;111956;-91
2023/01/26 13:21:24;;;;;;;;;;;8.00;99.90;;;;;;7348070;19;108411;-93
2023/01/26 13:23:52;;;;;;;;;;;8.00;99.90;;;;;;7354163;19;110904;-93
2023/01/26 13:26:20;;;;;;;;;;;8.10;99.90;;;;;;7346105;19;108983;-92
2023/01/26 13:28:48;;;;;;;;;;;8.20;99.90;;;;;;7343641;19;111430;-92
2023/01/26 13:31:28;;;;;;;;;;;8.30;99.90;;;;;;7346629;19;111487;-93
2023/01/26 13:33:58;;;;;;;;;;;8.30;99.90;;;;;;7346927;19;108350;-93
2023/01/26 13:36:28;;;;;;;;;;;8.30;99.90;;;;;;7347035;19;111877;-92
2023/01/26 13:38:58;;;;;;;;;;;8.30;99.90;;;;;;7347241;19;111364;-93
2023/01/26 13:41:25;;;;;;;;;;;8.30;99.90;;;;;;7345303;19;108468;-93
2023/01/26 13:44:02;;;;;;;;;;;8.30;99.90;;;;;;7359788;19;110917;-96
2023/01/26 13:50:27;;;;;;;;;;;8.50;99.90;;;;;;7362261;19;107875;-96
2023/01/26 13:53:48;;;;;;;;;;;8.80;99.90;;;;;;7359408;19;108388;-95
2023/01/26 13:56:47;;;;;;;;;;;8.90;99.90;;;;;;7361126;19;107992;-95
2023/01/26 13:59:52;;;;;;;;;;;9.10;99.90;;;;;;7353298;19;108337;-95
2023/01/26 14:02:37;;;;;;;;;;;9.10;99.90;;;;;;7356607;19;108245;-96
2023/01/26 14:05:43;;;;;;;;;;;9.10;99.90;;;;;;7353700;19;108420;-94
2023/01/26 14:08:51;;;;;;;;;;;9.10;99.90;;;;;;7353789;19;108426;-95
2023/01/26 14:11:33;;;;;;;;;;;9.00;99.90;;;;;;7365963;19;108496;-95
2023/01/26 14:14:37;;;;;;;;;;;9.10;99.90;;;;;;7362358;19;108317;-95
2023/01/26 14:17:27;;;;;;;;;;;9.20;99.90;;;;;;7358644;19;109128;-95
2023/01/26 14:20:40;;;;;;;;;;;9.30;99.90;;;;;;7354210;19;109029;-96
2023/01/26 14:23:21;;;;;;;;;;;9.30;99.90;;;;;;7358327;19;108262;-96
2023/01/26 14:26:04;;;;;;;;;;;9.20;99.90;;;;;;7360173;19;108314;-96
2023/01/26 14:28:46;;;;;;;;;;;9.30;99.90;;;;;;7361958;19;108870;-95
2023/01/26 14:31:24;;;;;;;;;;;9.30;99.90;;;;;;7366115;19;107810;-95
2023/01/26 14:34:08;;;;;;;;;;;9.30;99.90;;;;;;7361971;19;109385;-96
2023/01/26 14:36:58;;;;;;;;;;;9.40;99.90;;;;;;7371660;19;108309;-95
2023/01/26 14:39:34;;;;;;;;;;;9.30;99.90;;;;;;7351963;19;108476;-95
2023/01/26 14:42:17;;;;;;;;;;;9.40;99.90;;;;;;7349851;19;108451;-94
2023/01/26 14:45:00;;;;;;;;;;;9.30;99.90;;;;;;7353146;19;108354;-94
2023/01/26 14:48:03;;;;;;;;;;;9.30;99.90;;;;;;7350337;19;109478;-96
2023/01/26 14:50:53;;;;;;;;;;;9.30;99.90;;;;;;7350784;19;107887;-95
2023/01/26 14:54:06;;;;;;;;;;;9.30;99.90;;;;;;7350046;19;109555;-94
2023/01/26 14:56:50;;;;;;;;;;;9.30;99.90;;;;;;7351290;19;109816;-94
2023/01/26 14:59:37;;;;;;;;;;;9.20;99.90;;;;;;7354907;19;108339;-94
2023/01/26 15:02:26;;;;;;;;;;;9.20;99.90;;;;;;7362060;19;108325;-95
2023/01/26 15:05:12;;;;;;;;;;;9.30;99.90;;;;;;7358349;19;108260;-96
2023/01/26 15:07:56;;;;;;;;;;;9.30;99.90;;;;;;7357671;19;108987;-94
2023/01/26 15:10:39;;;;;;;;;;;9.20;99.90;;;;;;7356053;19;109443;-95
2023/01/26 15:13:28;;;;;;;;;;;9.20;99.90;;;;;;7360105;19;108020;-95
2023/01/26 15:24:18;;;;;;;;;;;9.20;99.90;;;;;;7339966;19;128090;-96
2023/01/26 15:27:03;;;;;;;;;;;9.20;99.90;;;;;;7367408;19;110268;-95
2023/01/26 15:29:33;;;;;;;;;;;9.10;99.90;;;;;;7370780;19;108673;-95
2023/01/26 15:32:28;;;;;;;;;;;9.10;99.90;;;;;;7372049;19;108184;-95
2023/01/26 15:35:25;;;;;;;;;;;9.10;99.90;;;;;;7375282;19;109604;-95
2023/01/26 15:37:59;;;;;;;;;;;9.10;99.90;;;;;;7374779;19;107859;-94
2023/01/26 15:40:29;;;;;;;;;;;9.10;99.90;;;;;;7377161;19;108600;-94
2023/01/26 15:43:16;;;;;;;;;;;9.10;99.90;;;;;;7362130;19;108205;-94
2023/01/26 15:45:52;;;;;;;;;;;9.10;99.90;;;;;;7364125;19;108103;-95